Hickory Withe, Tennessee
Current Conditions -  °F | °C
As of 1:50 PM on Monday 24 Nov 2014 (Local Time) from KNQA Reporting Station
Scattered Clouds Scattered Clouds  
Wind Chill: 55°   Ceiling: Unl
Heat Index: 55°   Visibility: 10mi
Dew Point: 36°   Wind: 15mph
Humidity: 47%   Direction: 230°SW
Pressure: 29.87"   Gusts: NA
Location:  35.24°N, 89.59°W
Report Text: KNQA 241950Z 23013KT 10SM FEW040 SCT250 13/02 A2987
Loading
Personal Weather Stations






























Interactive Weather Map New forecast layout! Learn more

10-Day Weather Forecast

Advertisements
Track Severe Weather on mobile